createdAt,value
2023-03-07T00:02:06.817Z,100.00
2023-03-07T00:04:34.734Z,100.00
2023-03-07T00:07:02.754Z,100.00
2023-03-07T00:09:31.034Z,100.00
2023-03-07T00:12:00.734Z,100.00
2023-03-07T00:14:28.869Z,100.00
2023-03-07T00:16:56.917Z,100.00
2023-03-07T00:19:25.103Z,100.00
2023-03-07T00:21:52.930Z,100.00
2023-03-07T00:24:21.191Z,100.00
2023-03-07T00:26:49.253Z,100.00
2023-03-07T00:29:19.566Z,100.00
2023-03-07T00:31:47.819Z,100.00
2023-03-07T00:34:16.193Z,100.00
2023-03-07T00:36:44.039Z,100.00
2023-03-07T00:39:12.208Z,100.00
2023-03-07T00:41:40.488Z,100.00
2023-03-07T00:44:08.661Z,100.00
2023-03-07T00:46:38.046Z,100.00
2023-03-07T00:49:06.009Z,100.00
2023-03-07T00:51:33.712Z,100.00
2023-03-07T00:54:01.825Z,100.00
2023-03-07T00:56:30.355Z,100.00
2023-03-07T00:58:59.013Z,100.00
2023-03-07T01:01:28.886Z,100.00
2023-03-07T01:03:58.135Z,100.00
2023-03-07T01:06:27.026Z,100.00
2023-03-07T01:08:56.696Z,100.00
2023-03-07T01:11:24.732Z,100.00
2023-03-07T01:13:52.912Z,100.00
2023-03-07T01:16:21.834Z,100.00
2023-03-07T01:18:50.681Z,100.00
2023-03-07T01:21:22.100Z,100.00
2023-03-07T01:23:50.908Z,100.00
2023-03-07T01:26:21.014Z,100.00
2023-03-07T01:28:49.043Z,100.00
2023-03-07T01:31:17.094Z,100.00
2023-03-07T01:33:45.633Z,100.00
2023-03-07T01:36:22.559Z,100.00
2023-03-07T01:38:51.231Z,100.00
2023-03-07T01:41:19.439Z,100.00
2023-03-07T01:43:50.140Z,100.00
2023-03-07T01:46:42.148Z,100.00
2023-03-07T01:49:13.555Z,100.00
2023-03-07T01:51:45.116Z,100.00
2023-03-07T01:54:17.720Z,100.00
2023-03-07T01:56:47.703Z,100.00
2023-03-07T01:59:20.092Z,100.00
2023-03-07T02:01:47.951Z,100.00
2023-03-07T02:04:18.257Z,100.00
2023-03-07T02:06:47.761Z,100.00
2023-03-07T02:09:18.256Z,100.00
2023-03-07T02:11:47.694Z,100.00
2023-03-07T02:14:15.530Z,100.00
2023-03-07T02:16:46.141Z,100.00
2023-03-07T02:19:33.717Z,100.00
2023-03-07T02:22:09.053Z,100.00
2023-03-07T02:24:41.713Z,100.00
2023-03-07T02:27:12.059Z,100.00
2023-03-07T02:29:41.111Z,100.00
2023-03-07T02:32:09.542Z,100.00
2023-03-07T02:34:37.586Z,100.00
2023-03-07T02:37:15.438Z,100.00
2023-03-07T02:39:45.648Z,100.00
2023-03-07T02:42:18.735Z,100.00
2023-03-07T02:44:56.977Z,100.00
2023-03-07T02:47:25.472Z,100.00
2023-03-07T02:49:53.663Z,100.00
2023-03-07T02:52:21.790Z,100.00
2023-03-07T02:54:49.908Z,100.00
2023-03-07T02:57:19.991Z,100.00
2023-03-07T02:59:47.799Z,100.00
2023-03-07T03:02:15.582Z,100.00
2023-03-07T03:04:43.622Z,100.00
2023-03-07T03:07:11.535Z,100.00
2023-03-07T03:09:39.373Z,100.00
2023-03-07T03:12:07.706Z,100.00
2023-03-07T03:14:38.089Z,100.00
2023-03-07T03:17:06.350Z,100.00
2023-03-07T03:19:34.142Z,100.00
2023-03-07T03:22:01.890Z,100.00
2023-03-07T03:24:34.104Z,100.00
2023-03-07T03:27:02.055Z,100.00
2023-03-07T03:29:29.946Z,100.00
2023-03-07T03:32:04.413Z,100.00
2023-03-07T03:34:35.356Z,100.00
2023-03-07T03:37:03.905Z,100.00
2023-03-07T03:39:32.272Z,100.00
2023-03-07T03:42:01.098Z,100.00
2023-03-07T03:44:29.789Z,100.00
2023-03-07T03:46:58.374Z,100.00
2023-03-07T03:49:27.987Z,100.00
2023-03-07T03:51:56.439Z,100.00
2023-03-07T03:54:24.499Z,100.00
2023-03-07T03:56:54.780Z,100.00
2023-03-07T03:59:23.396Z,100.00
2023-03-07T04:01:55.119Z,100.00
2023-03-07T04:04:23.703Z,100.00
2023-03-07T04:06:53.634Z,100.00
2023-03-07T04:09:21.806Z,100.00
2023-03-07T04:11:51.474Z,100.00
2023-03-07T04:14:19.575Z,100.00
2023-03-07T04:16:48.380Z,100.00
2023-03-07T04:19:16.833Z,100.00
2023-03-07T04:21:44.638Z,100.00
2023-03-07T04:24:17.627Z,100.00
2023-03-07T04:26:45.840Z,100.00
2023-03-07T04:29:14.240Z,100.00
2023-03-07T04:31:55.444Z,100.00
2023-03-07T04:34:23.695Z,100.00
2023-03-07T04:36:51.647Z,100.00
2023-03-07T04:39:21.092Z,100.00
2023-03-07T04:41:48.933Z,100.00
2023-03-07T04:44:21.296Z,100.00
2023-03-07T04:46:49.892Z,100.00
2023-03-07T04:49:18.203Z,100.00
2023-03-07T04:51:45.979Z,100.00
2023-03-07T04:54:16.624Z,100.00
2023-03-07T04:56:50.504Z,100.00
2023-03-07T04:59:20.343Z,100.00
2023-03-07T05:01:49.421Z,100.00
2023-03-07T05:04:18.116Z,100.00
2023-03-07T05:06:46.020Z,100.00
2023-03-07T05:09:14.522Z,100.00
2023-03-07T05:11:42.880Z,100.00
2023-03-07T05:14:12.123Z,100.00
2023-03-07T05:16:39.701Z,100.00
2023-03-07T05:19:08.017Z,100.00
2023-03-07T05:21:36.217Z,100.00
2023-03-07T05:24:04.736Z,100.00
2023-03-07T05:26:34.272Z,100.00
2023-03-07T05:29:02.731Z,100.00
2023-03-07T05:31:32.215Z,100.00
2023-03-07T05:34:00.540Z,100.00
2023-03-07T05:36:28.570Z,100.00
2023-03-07T05:38:57.647Z,100.00
2023-03-07T05:41:25.887Z,100.00
2023-03-07T05:43:54.906Z,100.00
2023-03-07T05:46:23.779Z,100.00
2023-03-07T05:48:53.310Z,100.00
2023-03-07T05:51:21.079Z,100.00
2023-03-07T05:53:49.739Z,100.00
2023-03-07T05:56:18.424Z,100.00
2023-03-07T05:58:46.054Z,100.00
2023-03-07T06:01:14.385Z,100.00
2023-03-07T06:03:43.925Z,100.00
2023-03-07T06:06:13.391Z,100.00
2023-03-07T06:08:42.452Z,100.00
2023-03-07T06:11:11.942Z,100.00
2023-03-07T06:13:40.475Z,100.00
2023-03-07T06:16:08.304Z,100.00
2023-03-07T06:18:38.989Z,100.00
2023-03-07T06:21:10.413Z,100.00
2023-03-07T06:23:45.333Z,100.00
2023-03-07T06:26:17.832Z,100.00
2023-03-07T06:28:49.132Z,100.00
2023-03-07T06:31:18.803Z,100.00
2023-03-07T06:33:47.761Z,100.00
2023-03-07T06:36:18.383Z,100.00
2023-03-07T06:38:52.097Z,100.00
2023-03-07T06:41:20.163Z,100.00
2023-03-07T06:43:51.637Z,100.00
2023-03-07T06:46:21.265Z,100.00
2023-03-07T06:48:52.161Z,100.00
2023-03-07T06:51:22.019Z,100.00
2023-03-07T06:53:50.262Z,100.00
2023-03-07T06:56:20.209Z,100.00
2023-03-07T06:58:48.157Z,100.00
2023-03-07T07:01:18.339Z,100.00
2023-03-07T07:03:48.364Z,100.00
2023-03-07T07:06:17.917Z,100.00
2023-03-07T07:08:46.014Z,100.00
2023-03-07T07:11:14.373Z,100.00
2023-03-07T07:13:43.573Z,100.00
2023-03-07T07:16:16.270Z,100.00
2023-03-07T07:18:46.061Z,100.00
2023-03-07T07:21:14.079Z,100.00
2023-03-07T07:23:42.070Z,100.00
2023-03-07T07:26:10.638Z,100.00
2023-03-07T07:28:38.655Z,100.00
2023-03-07T07:31:10.137Z,100.00
2023-03-07T07:33:38.718Z,100.00
2023-03-07T07:36:08.686Z,100.00
2023-03-07T07:38:37.438Z,100.00
2023-03-07T07:41:05.667Z,100.00
2023-03-07T07:43:34.485Z,100.00
2023-03-07T07:46:39.258Z,100.00
2023-03-07T07:49:08.965Z,100.00
2023-03-07T07:51:37.378Z,100.00
2023-03-07T07:54:05.395Z,100.00
2023-03-07T07:56:33.188Z,100.00
2023-03-07T07:59:01.205Z,100.00
2023-03-07T08:01:31.981Z,100.00
2023-03-07T08:04:01.274Z,100.00
2023-03-07T08:06:29.122Z,100.00
2023-03-07T08:08:57.154Z,100.00
2023-03-07T08:11:26.551Z,100.00
2023-03-07T08:13:54.387Z,100.00
2023-03-07T08:16:24.166Z,98.78
2023-03-07T08:19:00.968Z,93.48
2023-03-07T08:21:30.288Z,96.10
2023-03-07T08:23:58.142Z,93.68
2023-03-07T08:26:26.828Z,85.06
2023-03-07T08:28:54.535Z,81.57
2023-03-07T08:31:24.559Z,83.63
2023-03-07T08:33:52.643Z,81.10
2023-03-07T08:36:20.686Z,78.53
2023-03-07T08:38:52.204Z,82.59
2023-03-07T08:41:20.821Z,85.25
2023-03-07T08:43:48.567Z,83.62
2023-03-07T08:46:16.627Z,84.29
2023-03-07T08:48:44.507Z,83.50
2023-03-07T08:51:13.368Z,84.09
2023-03-07T08:53:42.992Z,85.24
2023-03-07T08:56:13.189Z,84.79
2023-03-07T08:58:41.460Z,83.51
2023-03-07T09:01:10.136Z,84.14
2023-03-07T09:03:38.204Z,80.79
2023-03-07T09:06:06.703Z,78.60
2023-03-07T09:08:34.828Z,78.99
2023-03-07T09:11:05.554Z,78.90
2023-03-07T09:13:42.948Z,78.93
2023-03-07T09:16:14.710Z,76.62
2023-03-07T09:18:43.047Z,78.52
2023-03-07T09:21:11.047Z,76.16
2023-03-07T09:23:38.807Z,76.19
2023-03-07T09:26:07.655Z,71.07
2023-03-07T09:28:37.749Z,70.20
2023-03-07T09:31:08.463Z,68.16
2023-03-07T09:33:36.594Z,68.00
2023-03-07T09:36:06.463Z,65.90
2023-03-07T09:38:34.613Z,65.30
2023-03-07T09:41:04.921Z,63.08
2023-03-07T09:43:39.317Z,60.39
2023-03-07T09:46:33.231Z,60.24
2023-03-07T09:49:08.262Z,60.56
2023-03-07T09:51:38.408Z,59.22
2023-03-07T09:54:09.901Z,60.90
2023-03-07T09:56:40.468Z,58.59
2023-03-07T09:59:22.357Z,58.43
2023-03-07T10:01:54.099Z,56.42
2023-03-07T10:04:25.094Z,54.64
2023-03-07T10:06:57.412Z,55.11
2023-03-07T10:09:26.921Z,56.28
2023-03-07T10:12:09.479Z,56.83
2023-03-07T10:14:46.319Z,57.24
2023-03-07T10:17:21.473Z,60.67
2023-03-07T10:19:51.542Z,61.17
2023-03-07T10:22:21.289Z,62.68
2023-03-07T10:25:07.691Z,62.17
2023-03-07T10:27:35.664Z,63.84
2023-03-07T10:30:10.219Z,64.02
2023-03-07T10:32:41.767Z,64.53
2023-03-07T10:35:16.453Z,65.24
2023-03-07T10:37:50.384Z,65.23
2023-03-07T10:40:23.153Z,63.03
2023-03-07T10:42:51.461Z,64.15
2023-03-07T10:45:19.903Z,65.45
2023-03-07T10:47:49.986Z,66.12
2023-03-07T10:50:25.590Z,64.88
2023-03-07T10:52:55.493Z,62.10
2023-03-07T10:55:34.912Z,63.85
2023-03-07T10:58:19.688Z,58.77
2023-03-07T11:00:49.063Z,52.32
2023-03-07T11:03:26.781Z,44.65
2023-03-07T11:05:54.732Z,43.97
2023-03-07T11:08:27.382Z,45.45
2023-03-07T11:10:55.904Z,48.37
2023-03-07T11:13:24.698Z,45.85
2023-03-07T11:16:02.884Z,45.27
2023-03-07T11:18:42.688Z,45.88
2023-03-07T11:21:27.425Z,45.88
2023-03-07T11:24:00.296Z,46.50
2023-03-07T11:26:31.540Z,47.37
2023-03-07T11:29:06.506Z,46.93
2023-03-07T11:31:38.012Z,45.47
2023-03-07T11:34:16.275Z,44.20
2023-03-07T11:36:48.937Z,43.43
2023-03-07T11:39:23.165Z,43.92
2023-03-07T11:41:54.845Z,47.95
2023-03-07T11:44:32.573Z,48.25
2023-03-07T11:47:16.544Z,47.90
2023-03-07T11:49:47.484Z,49.00
2023-03-07T11:52:24.628Z,50.73
2023-03-07T11:54:59.337Z,52.39
2023-03-07T11:57:34.895Z,53.18
2023-03-07T12:00:18.176Z,53.92
2023-03-07T12:03:10.400Z,53.97
2023-03-07T12:05:45.767Z,55.74
2023-03-07T12:08:23.527Z,56.18
2023-03-07T12:10:59.310Z,56.81
2023-03-07T12:13:32.104Z,56.93
2023-03-07T12:16:07.802Z,57.59
2023-03-07T12:18:42.639Z,59.18
2023-03-07T12:21:25.921Z,59.83
2023-03-07T12:23:58.015Z,59.67
2023-03-07T12:26:28.379Z,59.53
2023-03-07T12:29:01.313Z,60.81
2023-03-07T12:31:32.470Z,62.31
2023-03-07T12:34:05.358Z,62.06
2023-03-07T12:36:38.021Z,62.35
2023-03-07T12:39:15.626Z,62.38
2023-03-07T12:41:49.196Z,60.05
2023-03-07T12:44:23.795Z,59.55
2023-03-07T12:46:56.268Z,59.46
2023-03-07T12:49:37.908Z,60.45
2023-03-07T12:52:16.304Z,60.72
2023-03-07T12:54:51.128Z,61.87
2023-03-07T12:57:22.096Z,63.20
2023-03-07T12:59:51.811Z,62.86
2023-03-07T13:02:23.212Z,63.10
2023-03-07T13:04:51.463Z,63.07
2023-03-07T13:07:22.407Z,63.77
2023-03-07T13:09:53.356Z,64.18
2023-03-07T13:12:31.994Z,65.49
2023-03-07T13:15:00.954Z,67.67
2023-03-07T13:17:48.225Z,68.32
2023-03-07T13:20:36.199Z,69.54
2023-03-07T13:23:15.144Z,69.79
2023-03-07T13:25:49.103Z,70.45
2023-03-07T13:28:36.455Z,70.70
2023-03-07T13:31:29.624Z,70.60
2023-03-07T13:33:58.138Z,70.37
2023-03-07T13:36:34.125Z,69.62
2023-03-07T13:39:02.132Z,70.20
2023-03-07T13:41:48.178Z,69.54
2023-03-07T13:44:30.263Z,69.59
2023-03-07T13:47:05.024Z,69.56
2023-03-07T13:49:43.323Z,70.82
2023-03-07T13:52:22.953Z,73.04
2023-03-07T13:54:51.773Z,75.14
2023-03-07T13:57:23.379Z,76.95
2023-03-07T13:59:51.646Z,77.68
2023-03-07T14:02:21.435Z,79.30
2023-03-07T14:04:54.274Z,78.79
2023-03-07T14:07:24.994Z,79.58
2023-03-07T14:09:55.478Z,80.44
2023-03-07T14:12:33.510Z,79.61
2023-03-07T14:15:06.968Z,80.59
2023-03-07T14:17:43.022Z,81.30
2023-03-07T14:20:17.756Z,81.92
2023-03-07T14:22:53.659Z,79.19
2023-03-07T14:25:25.008Z,76.71
2023-03-07T14:27:58.411Z,76.96
2023-03-07T14:30:27.712Z,74.72
2023-03-07T14:32:55.742Z,70.60
2023-03-07T14:35:40.452Z,71.86
2023-03-07T14:38:09.730Z,72.35
2023-03-07T14:40:43.592Z,73.58
2023-03-07T14:43:22.555Z,75.86
2023-03-07T14:45:55.024Z,77.93
2023-03-07T14:48:48.508Z,77.93
2023-03-07T14:51:18.827Z,76.95
2023-03-07T14:53:46.845Z,78.98
2023-03-07T14:56:20.782Z,80.35
2023-03-07T14:58:52.410Z,80.81
2023-03-07T15:01:20.908Z,79.72
2023-03-07T15:03:49.962Z,81.75
2023-03-07T15:06:20.035Z,81.84
2023-03-07T15:08:49.497Z,83.14
2023-03-07T15:11:29.287Z,82.09
2023-03-07T15:14:00.297Z,80.44
2023-03-07T15:16:30.797Z,79.32
2023-03-07T15:18:59.910Z,77.31
2023-03-07T15:21:31.416Z,77.66
2023-03-07T15:24:00.051Z,77.48
2023-03-07T15:26:28.866Z,78.25
2023-03-07T15:29:02.340Z,80.76
2023-03-07T15:31:32.059Z,81.63
2023-03-07T15:34:13.644Z,82.30
2023-03-07T15:36:41.946Z,82.87
2023-03-07T15:39:34.877Z,84.40
2023-03-07T15:42:05.272Z,85.29
2023-03-07T15:44:34.839Z,84.39
2023-03-07T15:47:05.659Z,86.24
2023-03-07T15:49:37.797Z,86.72
2023-03-07T15:52:07.344Z,88.58
2023-03-07T15:54:38.741Z,88.30
2023-03-07T15:57:10.472Z,86.91
2023-03-07T15:59:43.035Z,88.67
2023-03-07T16:02:42.134Z,89.75
2023-03-07T16:05:29.915Z,91.81
2023-03-07T16:07:58.790Z,92.10
2023-03-07T16:10:29.793Z,93.93
2023-03-07T16:12:58.228Z,96.24
2023-03-07T16:15:27.636Z,100.00
2023-03-07T16:17:58.894Z,100.00
2023-03-07T16:20:27.585Z,100.00
2023-03-07T16:22:55.814Z,100.00
2023-03-07T16:25:25.362Z,100.00
2023-03-07T16:27:54.825Z,100.00
2023-03-07T16:30:24.119Z,100.00
2023-03-07T16:32:53.823Z,100.00
2023-03-07T16:35:24.310Z,100.00
2023-03-07T16:37:52.727Z,100.00
2023-03-07T16:40:23.462Z,100.00
2023-03-07T16:42:51.732Z,100.00
2023-03-07T16:45:22.598Z,100.00
2023-03-07T16:47:54.119Z,100.00
2023-03-07T16:50:23.699Z,100.00
2023-03-07T16:52:52.236Z,100.00
2023-03-07T16:55:20.672Z,100.00
2023-03-07T16:57:49.789Z,100.00
2023-03-07T17:00:19.491Z,100.00
2023-03-07T17:02:48.933Z,100.00
2023-03-07T17:05:20.463Z,100.00
2023-03-07T17:07:48.716Z,100.00
2023-03-07T17:10:17.807Z,100.00
2023-03-07T17:12:46.699Z,100.00
2023-03-07T17:15:16.505Z,100.00
2023-03-07T17:17:45.298Z,100.00
2023-03-07T17:20:17.424Z,100.00
2023-03-07T17:22:47.995Z,100.00
2023-03-07T17:25:16.350Z,100.00
2023-03-07T17:27:45.858Z,100.00
2023-03-07T17:30:17.775Z,100.00
2023-03-07T17:32:46.185Z,100.00
2023-03-07T17:35:15.111Z,100.00
2023-03-07T17:37:43.372Z,100.00
2023-03-07T17:40:14.066Z,100.00
2023-03-07T17:42:42.725Z,99.44
2023-03-07T17:45:12.346Z,99.12
2023-03-07T17:47:41.032Z,98.25
2023-03-07T17:50:10.320Z,97.71
2023-03-07T17:52:40.177Z,96.92
2023-03-07T17:55:11.956Z,96.51
2023-03-07T17:57:42.084Z,96.81
2023-03-07T18:00:13.234Z,95.99
2023-03-07T18:02:43.786Z,95.31
2023-03-07T18:05:13.179Z,93.39
2023-03-07T18:07:41.721Z,94.02
2023-03-07T18:10:13.628Z,93.62
2023-03-07T18:12:43.271Z,92.95
2023-03-07T18:15:13.304Z,92.72
2023-03-07T18:17:48.298Z,92.49
2023-03-07T18:20:17.892Z,92.53
2023-03-07T18:22:46.040Z,92.08
2023-03-07T18:25:15.716Z,92.37
2023-03-07T18:27:46.164Z,91.77
2023-03-07T18:30:15.156Z,91.55
2023-03-07T18:32:43.261Z,91.57
2023-03-07T18:35:11.966Z,90.98
2023-03-07T18:37:40.373Z,91.32
2023-03-07T18:40:09.688Z,91.54
2023-03-07T18:42:39.272Z,91.54
2023-03-07T18:45:09.858Z,91.37
2023-03-07T18:47:38.630Z,91.21
2023-03-07T18:50:14.767Z,90.83
2023-03-07T18:52:48.640Z,91.24
2023-03-07T18:55:16.990Z,90.62
2023-03-07T18:57:45.195Z,90.81
2023-03-07T19:00:15.236Z,90.77
2023-03-07T19:02:43.188Z,90.15
2023-03-07T19:05:11.351Z,90.84
2023-03-07T19:07:39.399Z,90.76
2023-03-07T19:10:08.152Z,90.18
2023-03-07T19:15:41.055Z,88.87
2023-03-07T19:18:09.270Z,88.42
2023-03-07T19:20:40.336Z,88.67
2023-03-07T19:23:09.616Z,87.93
2023-03-07T19:25:37.486Z,87.39
2023-03-07T19:28:05.278Z,87.95
2023-03-07T19:30:35.662Z,87.59
2023-03-07T19:33:05.343Z,88.08
2023-03-07T19:35:33.539Z,88.61
2023-03-07T19:38:01.351Z,88.04
2023-03-07T19:40:29.296Z,87.71
2023-03-07T19:42:57.101Z,88.40
2023-03-07T19:45:25.144Z,88.31
2023-03-07T19:47:58.451Z,88.75
2023-03-07T19:50:37.105Z,89.06
2023-03-07T19:53:05.486Z,88.85
2023-03-07T19:55:33.696Z,89.26
2023-03-07T19:58:01.542Z,89.13
2023-03-07T20:00:29.363Z,89.31
2023-03-07T20:02:57.292Z,89.56
2023-03-07T20:05:25.026Z,89.32
2023-03-07T20:07:54.769Z,88.85
2023-03-07T20:10:22.962Z,89.48
2023-03-07T20:12:53.224Z,89.62
2023-03-07T20:18:07.353Z,89.26
2023-03-07T20:20:35.545Z,88.94
2023-03-07T20:23:05.350Z,88.71
2023-03-07T20:25:33.032Z,88.75
2023-03-07T20:28:00.942Z,88.30
2023-03-07T20:30:28.656Z,88.90
2023-03-07T20:32:57.346Z,88.08
2023-03-07T20:35:25.680Z,88.75
2023-03-07T20:37:53.479Z,88.40
2023-03-07T20:40:23.417Z,88.17
2023-03-07T20:42:51.941Z,88.28
2023-03-07T20:45:20.955Z,88.11
2023-03-07T20:47:49.333Z,88.25
2023-03-07T20:50:17.266Z,88.33
2023-03-07T20:52:45.319Z,87.94
2023-03-07T20:55:13.179Z,88.21
2023-03-07T20:57:42.416Z,88.28
2023-03-07T21:00:11.172Z,88.44
2023-03-07T21:02:39.844Z,88.01
2023-03-07T21:05:07.768Z,87.44
2023-03-07T21:07:35.653Z,87.28
2023-03-07T21:10:04.117Z,87.13
2023-03-07T21:12:32.175Z,86.34
2023-03-07T21:15:01.498Z,86.33
2023-03-07T21:17:48.410Z,87.01
2023-03-07T21:20:16.721Z,88.50
2023-03-07T21:22:45.491Z,90.59
2023-03-07T21:25:13.590Z,91.20
2023-03-07T21:27:41.300Z,92.06
2023-03-07T21:30:11.304Z,91.36
2023-03-07T21:32:39.731Z,90.37
2023-03-07T21:35:08.477Z,89.95
2023-03-07T21:37:37.710Z,90.58
2023-03-07T21:40:06.281Z,91.07
2023-03-07T21:42:34.328Z,89.24
2023-03-07T21:45:01.965Z,89.43
2023-03-07T21:47:31.866Z,90.36
2023-03-07T21:49:59.574Z,90.92
2023-03-07T21:52:30.118Z,89.54
2023-03-07T21:54:58.489Z,88.49
2023-03-07T21:57:26.441Z,89.35
2023-03-07T21:59:54.146Z,89.38
2023-03-07T22:02:23.133Z,91.83
2023-03-07T22:04:52.204Z,95.33
2023-03-07T22:07:20.156Z,96.90
2023-03-07T22:09:48.025Z,97.13
2023-03-07T22:12:15.798Z,100.00
2023-03-07T22:14:43.684Z,100.00
2023-03-07T22:17:11.426Z,100.00
2023-03-07T22:19:39.414Z,100.00
2023-03-07T22:22:09.325Z,100.00
2023-03-07T22:24:37.390Z,100.00
2023-03-07T22:27:07.251Z,100.00
2023-03-07T22:29:35.048Z,100.00
2023-03-07T22:32:03.052Z,100.00
2023-03-07T22:34:30.955Z,100.00
2023-03-07T22:36:58.756Z,100.00
2023-03-07T22:39:28.262Z,100.00
2023-03-07T22:41:56.090Z,100.00
2023-03-07T22:44:24.138Z,100.00
2023-03-07T22:46:52.441Z,100.00
2023-03-07T22:49:20.129Z,100.00
2023-03-07T22:51:48.027Z,100.00
2023-03-07T22:54:15.735Z,100.00
2023-03-07T22:56:44.937Z,100.00
2023-03-07T22:59:13.798Z,100.00
2023-03-07T23:01:41.685Z,100.00
2023-03-07T23:04:09.917Z,100.00
2023-03-07T23:06:38.400Z,100.00
2023-03-07T23:09:06.807Z,100.00
2023-03-07T23:11:35.849Z,100.00
2023-03-07T23:14:05.559Z,100.00
2023-03-07T23:16:34.056Z,100.00
2023-03-07T23:19:02.329Z,100.00
2023-03-07T23:21:31.929Z,100.00
2023-03-07T23:24:00.987Z,100.00
2023-03-07T23:26:29.969Z,100.00
2023-03-07T23:29:00.861Z,100.00
2023-03-07T23:31:31.647Z,100.00
2023-03-07T23:34:00.763Z,100.00
2023-03-07T23:36:30.450Z,100.00
2023-03-07T23:38:58.973Z,100.00
2023-03-07T23:41:26.898Z,100.00
2023-03-07T23:43:55.621Z,100.00
2023-03-07T23:46:24.121Z,100.00
2023-03-07T23:48:53.287Z,100.00
2023-03-07T23:51:21.956Z,100.00
2023-03-07T23:53:49.770Z,100.00
2023-03-07T23:56:17.774Z,100.00
2023-03-07T23:58:48.283Z,100.00
